Norwood Hollow, North Carolina
Current Conditions -  °F | °C
As of 8:35 AM on Friday 19 Dec 2014 (Local Time) from KTNB Reporting Station
Overcast Overcast  
Wind Chill: 26°   Ceiling: 3400
Heat Index: 33°   Visibility: 10mi
Dew Point: 18°   Wind: 8mph
Humidity: 53%   Direction: 300°WNW
Pressure: 30.11"   Gusts: NA
Location:  36.1797°N, 81.8424°W
Report Text: KTNB 191335Z AUTO 30007KT 10SM SCT026 OVC034 01/M08 A3011 RMK AO2 T00061079
Loading
Personal Weather Stations






























Interactive Weather Map New forecast layout! Learn more

10-Day Weather Forecast

Advertisements
Track Severe Weather on mobile